createdAt,value
2023-06-10T00:01:00.968Z,98409.48
2023-06-10T00:03:55.771Z,98408.09
2023-06-10T00:06:50.835Z,98400.96
2023-06-10T00:09:42.798Z,98403.40
2023-06-10T00:12:56.784Z,98405.52
2023-06-10T00:16:20.040Z,98402.27
2023-06-10T00:19:21.922Z,98401.98
2023-06-10T00:22:26.951Z,98404.73
2023-06-10T00:25:35.979Z,98410.77
2023-06-10T00:28:36.423Z,98411.91
2023-06-10T00:31:27.493Z,98413.33
2023-06-10T00:34:22.183Z,98415.22
2023-06-10T00:37:01.453Z,98417.14
2023-06-10T00:39:55.291Z,98419.02
2023-06-10T00:42:34.963Z,98416.58
2023-06-10T00:45:28.970Z,98416.23
2023-06-10T00:48:23.267Z,98419.64
2023-06-10T00:51:18.859Z,98421.05
2023-06-10T00:54:14.672Z,98417.75
2023-06-10T00:57:09.643Z,98423.95
2023-06-10T01:00:08.430Z,98422.77
2023-06-10T01:03:03.966Z,98422.33
2023-06-10T01:06:29.796Z,98426.48
2023-06-10T01:09:44.780Z,98427.24
2023-06-10T01:12:53.490Z,98424.79
2023-06-10T01:15:50.144Z,98429.80
2023-06-10T01:18:45.652Z,98425.23
2023-06-10T01:21:51.792Z,98427.05
2023-06-10T01:24:58.784Z,98423.16
2023-06-10T01:27:55.559Z,98422.34
2023-06-10T01:30:52.776Z,98419.10
2023-06-10T01:33:55.134Z,98417.16
2023-06-10T01:36:51.590Z,98418.99
2023-06-10T01:39:47.570Z,98426.54
2023-06-10T01:42:41.724Z,98431.63
2023-06-10T01:45:18.593Z,98433.89
2023-06-10T01:48:12.629Z,98431.73
2023-06-10T01:51:07.169Z,98432.80
2023-06-10T01:54:01.496Z,98431.67
2023-06-10T01:56:55.727Z,98433.54
2023-06-10T01:59:35.136Z,98431.68
2023-06-10T02:02:29.326Z,98429.77
2023-06-10T02:05:24.070Z,98435.94
2023-06-10T02:08:18.094Z,98441.02
2023-06-10T02:11:11.967Z,98443.93
2023-06-10T02:14:07.050Z,98449.20
2023-06-10T02:17:01.894Z,98451.17
2023-06-10T02:19:57.229Z,98449.09
2023-06-10T02:22:51.027Z,98449.77
2023-06-10T02:25:45.192Z,98449.74
2023-06-10T02:28:39.253Z,98448.94
2023-06-10T02:31:36.519Z,98454.33
2023-06-10T02:34:30.801Z,98453.21
2023-06-10T02:37:14.915Z,98455.56
2023-06-10T02:40:11.646Z,98456.19
2023-06-10T02:43:05.987Z,98453.86
2023-06-10T02:46:00.004Z,98454.04
2023-06-10T02:48:54.347Z,98454.73
2023-06-10T02:51:48.532Z,98455.48
2023-06-10T02:54:42.765Z,98459.91
2023-06-10T02:57:36.851Z,98457.91
2023-06-10T03:00:31.214Z,98455.11
2023-06-10T03:03:26.778Z,98455.77
2023-06-10T03:06:20.987Z,98461.95
2023-06-10T03:09:15.814Z,98458.91
2023-06-10T03:12:12.812Z,98463.67
2023-06-10T03:15:08.154Z,98465.44
2023-06-10T03:18:03.610Z,98468.20
2023-06-10T03:20:48.262Z,98462.21
2023-06-10T03:23:42.250Z,98466.27
2023-06-10T03:26:36.473Z,98465.14
2023-06-10T03:29:13.769Z,98466.24
2023-06-10T03:31:53.447Z,98468.69
2023-06-10T03:34:48.587Z,98472.86
2023-06-10T03:37:42.798Z,98475.66
2023-06-10T03:40:27.298Z,98477.95
2023-06-10T03:43:11.437Z,98482.48
2023-06-10T03:45:55.833Z,98487.41
2023-06-10T03:48:49.996Z,98489.95
2023-06-10T03:51:44.414Z,98490.39
2023-06-10T03:54:38.428Z,98490.87
2023-06-10T03:57:32.754Z,98491.48
2023-06-10T04:00:28.477Z,98490.81
2023-06-10T04:03:25.708Z,98496.06
2023-06-10T04:06:18.853Z,98496.79
2023-06-10T04:09:11.013Z,98501.69
2023-06-10T04:12:31.317Z,98499.05
2023-06-10T04:15:15.292Z,98496.08
2023-06-10T04:18:12.528Z,98497.46
2023-06-10T04:21:49.187Z,98502.88
2023-06-10T04:25:00.780Z,98496.67
2023-06-10T04:27:46.981Z,98499.88
2023-06-10T04:30:24.545Z,98501.73
2023-06-10T04:33:18.803Z,98500.42
2023-06-10T04:36:15.288Z,98508.16
2023-06-10T04:39:09.512Z,98507.20
2023-06-10T04:42:03.453Z,98502.15
2023-06-10T04:44:57.468Z,98502.50
2023-06-10T04:47:51.414Z,98508.77
2023-06-10T04:50:45.689Z,98508.74
2023-06-10T04:53:39.987Z,98509.76
2023-06-10T04:56:34.175Z,98508.39
2023-06-10T04:59:28.400Z,98508.41
2023-06-10T05:02:23.360Z,98512.70
2023-06-10T05:05:08.454Z,98508.47
2023-06-10T05:08:03.647Z,98512.64
2023-06-10T05:10:41.644Z,98515.36
2023-06-10T05:13:19.128Z,98515.81
2023-06-10T05:16:13.640Z,98517.33
2023-06-10T05:18:57.993Z,98514.51
2023-06-10T05:21:37.045Z,98517.13
2023-06-10T05:24:16.364Z,98516.29
2023-06-10T05:27:11.274Z,98517.23
2023-06-10T05:30:05.702Z,98516.07
2023-06-10T05:32:59.936Z,98514.14
2023-06-10T05:35:37.073Z,98518.23
2023-06-10T05:38:31.582Z,98522.19
2023-06-10T05:41:26.682Z,98518.70
2023-06-10T05:44:20.866Z,98524.33
2023-06-10T05:47:14.866Z,98532.88
2023-06-10T05:50:10.677Z,98534.69
2023-06-10T05:53:04.736Z,98535.23
2023-06-10T05:55:58.673Z,98541.54
2023-06-10T05:58:35.482Z,98540.54
2023-06-10T06:01:29.552Z,98538.46
2023-06-10T06:04:23.739Z,98542.53
2023-06-10T06:07:17.923Z,98542.79
2023-06-10T06:10:13.131Z,98543.85
2023-06-10T06:13:07.080Z,98545.17
2023-06-10T06:16:01.179Z,98549.22
2023-06-10T06:18:37.496Z,98550.39
2023-06-10T06:21:31.719Z,98548.94
2023-06-10T06:24:25.647Z,98552.92
2023-06-10T06:27:19.486Z,98554.13
2023-06-10T06:29:58.638Z,98563.77
2023-06-10T06:32:53.650Z,98569.67
2023-06-10T06:35:47.499Z,98574.64
2023-06-10T06:38:26.741Z,98573.63
2023-06-10T06:41:20.581Z,98578.55
2023-06-10T06:43:54.254Z,98581.02
2023-06-10T06:46:30.141Z,98581.04
2023-06-10T06:49:24.034Z,98581.80
2023-06-10T06:52:00.629Z,98583.70
2023-06-10T06:54:54.473Z,98586.20
2023-06-10T06:57:34.369Z,98586.84
2023-06-10T07:00:28.428Z,98590.04
2023-06-10T07:03:07.506Z,98587.73
2023-06-10T07:05:48.944Z,98590.35
2023-06-10T07:08:25.842Z,98590.38
2023-06-10T07:11:20.174Z,98593.66
2023-06-10T07:14:13.929Z,98597.91
2023-06-10T07:17:08.066Z,98599.81
2023-06-10T07:20:01.867Z,98603.16
2023-06-10T07:22:55.775Z,98602.42
2023-06-10T07:25:49.942Z,98602.08
2023-06-10T07:28:44.163Z,98601.80
2023-06-10T07:31:24.182Z,98607.18
2023-06-10T07:34:01.486Z,98606.89
2023-06-10T07:36:39.017Z,98609.73
2023-06-10T07:39:32.992Z,98613.27
2023-06-10T07:42:27.155Z,98611.42
2023-06-10T07:45:21.232Z,98609.70
2023-06-10T07:48:00.607Z,98609.36
2023-06-10T07:50:55.462Z,98606.96
2023-06-10T07:53:49.409Z,98608.48
2023-06-10T07:56:43.317Z,98610.83
2023-06-10T07:59:37.203Z,98614.07
2023-06-10T08:02:31.231Z,98618.08
2023-06-10T08:05:25.600Z,98621.02
2023-06-10T08:08:09.859Z,98625.01
2023-06-10T08:11:04.199Z,98628.73
2023-06-10T08:13:57.899Z,98631.83
2023-06-10T08:16:42.660Z,98631.33
2023-06-10T08:19:28.463Z,98628.65
2023-06-10T08:22:22.787Z,98629.84
2023-06-10T08:25:16.732Z,98628.05
2023-06-10T08:28:11.306Z,98628.71
2023-06-10T08:31:05.177Z,98624.02
2023-06-10T08:33:59.430Z,98618.64
2023-06-10T08:36:38.768Z,98622.01
2023-06-10T08:39:33.228Z,98631.28
2023-06-10T08:42:36.526Z,98635.48
2023-06-10T08:45:24.316Z,98635.95
2023-06-10T08:48:19.124Z,98638.23
2023-06-10T08:51:13.694Z,98642.88
2023-06-10T08:54:17.576Z,98641.80
2023-06-10T08:57:11.761Z,98642.09
2023-06-10T08:59:52.111Z,98648.36
2023-06-10T09:02:47.525Z,98645.16
2023-06-10T09:05:43.007Z,98647.14
2023-06-10T09:08:37.317Z,98647.54
2023-06-10T09:11:14.507Z,98646.28
2023-06-10T09:13:53.586Z,98643.06
2023-06-10T09:16:32.882Z,98645.73
2023-06-10T09:19:18.425Z,98643.77
2023-06-10T09:22:12.722Z,98642.70
2023-06-10T09:24:53.565Z,98641.60
2023-06-10T09:27:56.083Z,98641.02
2023-06-10T09:30:50.098Z,98641.88
2023-06-10T09:33:45.082Z,98648.80
2023-06-10T09:36:40.369Z,98647.08
2023-06-10T09:39:34.326Z,98644.55
2023-06-10T09:42:28.292Z,98646.34
2023-06-10T09:45:09.637Z,98646.89
2023-06-10T09:48:04.194Z,98641.52
2023-06-10T09:50:58.303Z,98646.80
2023-06-10T09:53:55.509Z,98648.06
2023-06-10T09:56:51.317Z,98648.44
2023-06-10T09:59:46.572Z,98646.02
2023-06-10T10:02:49.324Z,98642.41
2023-06-10T10:05:43.465Z,98640.40
2023-06-10T10:08:38.037Z,98638.57
2023-06-10T10:11:33.605Z,98639.73
2023-06-10T10:14:28.402Z,98643.95
2023-06-10T10:17:25.741Z,98643.21
2023-06-10T10:20:07.826Z,98643.16
2023-06-10T10:23:05.267Z,98639.75
2023-06-10T10:25:54.001Z,98644.91
2023-06-10T10:29:00.089Z,98644.09
2023-06-10T10:31:56.821Z,98654.04
2023-06-10T10:35:00.163Z,98647.77
2023-06-10T10:37:55.454Z,98642.85
2023-06-10T10:40:50.638Z,98640.67
2023-06-10T10:43:45.882Z,98638.66
2023-06-10T10:46:52.999Z,98643.41
2023-06-10T10:49:51.146Z,98642.73
2023-06-10T10:52:28.227Z,98637.23
2023-06-10T10:55:26.793Z,98640.21
2023-06-10T10:58:27.892Z,98637.02
2023-06-10T11:01:21.569Z,98629.87
2023-06-10T11:04:15.778Z,98627.61
2023-06-10T11:07:16.529Z,98622.11
2023-06-10T11:10:07.614Z,98622.22
2023-06-10T11:13:02.297Z,98614.69
2023-06-10T11:16:00.809Z,98611.60
2023-06-10T11:18:57.521Z,98606.55
2023-06-10T11:22:06.123Z,98599.39
2023-06-10T11:25:00.319Z,98599.80
2023-06-10T11:27:55.442Z,98596.88
2023-06-10T11:30:59.142Z,98593.61
2023-06-10T11:33:55.814Z,98594.63
2023-06-10T11:36:49.756Z,98593.30
2023-06-10T11:39:43.548Z,98594.73
2023-06-10T11:42:40.305Z,98593.22
2023-06-10T11:45:34.288Z,98594.57
2023-06-10T11:48:29.517Z,98593.55
2023-06-10T11:51:24.017Z,98593.20
2023-06-10T11:54:18.806Z,98590.84
2023-06-10T11:57:13.128Z,98588.44
2023-06-10T12:00:12.499Z,98586.88
2023-06-10T12:03:01.814Z,98586.88
2023-06-10T12:06:08.725Z,98582.13
2023-06-10T12:09:14.050Z,98581.65
2023-06-10T12:12:16.687Z,98587.12
2023-06-10T12:15:14.142Z,98588.84
2023-06-10T12:18:08.548Z,98586.80
2023-06-10T12:21:04.645Z,98592.19
2023-06-10T12:24:13.099Z,98594.25
2023-06-10T12:27:08.588Z,98582.84
2023-06-10T12:30:05.192Z,98583.00
2023-06-10T12:32:59.916Z,98578.17
2023-06-10T12:35:55.032Z,98580.21
2023-06-10T12:38:53.270Z,98576.83
2023-06-10T12:41:53.168Z,98577.85
2023-06-10T12:44:47.314Z,98571.67
2023-06-10T12:47:50.628Z,98571.59
2023-06-10T12:50:46.242Z,98568.71
2023-06-10T12:53:41.047Z,98572.63
2023-06-10T12:56:20.436Z,98571.52
2023-06-10T12:59:14.199Z,98574.77
2023-06-10T13:02:08.556Z,98578.39
2023-06-10T13:05:03.797Z,98573.80
2023-06-10T13:07:58.547Z,98574.90
2023-06-10T13:10:52.694Z,98570.23
2023-06-10T13:13:47.221Z,98568.73
2023-06-10T13:16:41.727Z,98565.71
2023-06-10T13:19:35.859Z,98564.37
2023-06-10T13:22:21.254Z,98559.38
2023-06-10T13:25:15.956Z,98554.02
2023-06-10T13:28:10.519Z,98551.81
2023-06-10T13:31:04.375Z,98548.24
2023-06-10T13:33:44.842Z,98555.60
2023-06-10T13:36:38.664Z,98554.34
2023-06-10T13:39:15.634Z,98551.80
2023-06-10T13:41:53.131Z,98552.36
2023-06-10T13:44:48.400Z,98551.39
2023-06-10T13:47:42.322Z,98557.25
2023-06-10T13:50:36.208Z,98555.04
2023-06-10T13:53:30.159Z,98555.58
2023-06-10T13:56:24.105Z,98555.50
2023-06-10T13:59:18.037Z,98557.64
2023-06-10T14:01:54.113Z,98559.80
2023-06-10T14:04:48.146Z,98564.54
2023-06-10T14:07:42.024Z,98575.05
2023-06-10T14:10:36.065Z,98598.55
2023-06-10T14:13:30.560Z,98612.48
2023-06-10T14:16:07.608Z,98606.54
2023-06-10T14:19:01.765Z,98598.05
2023-06-10T14:21:56.532Z,98592.83
2023-06-10T14:24:40.824Z,98582.21
2023-06-10T14:27:34.974Z,98582.38
2023-06-10T14:30:28.797Z,98582.14
2023-06-10T14:33:05.322Z,98582.78
2023-06-10T14:35:59.439Z,98583.33
2023-06-10T14:38:53.224Z,98582.98
2023-06-10T14:41:47.142Z,98589.48
2023-06-10T14:44:40.861Z,98584.09
2023-06-10T14:47:35.456Z,98574.77
2023-06-10T14:50:29.863Z,98577.30
2023-06-10T14:53:23.623Z,98579.67
2023-06-10T14:56:17.470Z,98579.05
2023-06-10T14:59:11.612Z,98576.04
2023-06-10T15:02:05.945Z,98584.29
2023-06-10T15:04:59.858Z,98585.55
2023-06-10T15:07:54.727Z,98585.84
2023-06-10T15:10:49.441Z,98586.16
2023-06-10T15:13:43.368Z,98587.92
2023-06-10T15:16:35.077Z,98589.33
2023-06-10T15:19:29.127Z,98594.23
2023-06-10T15:22:23.198Z,98593.29
2023-06-10T15:25:30.127Z,98598.44
2023-06-10T15:28:28.151Z,98601.98
2023-06-10T15:31:09.120Z,98598.44
2023-06-10T15:33:48.602Z,98594.48
2023-06-10T15:36:42.553Z,98598.90
2023-06-10T15:39:36.318Z,98597.95
2023-06-10T15:42:15.386Z,98598.42
2023-06-10T15:45:12.415Z,98596.94
2023-06-10T15:47:57.689Z,98597.48
2023-06-10T15:50:51.963Z,98598.84
2023-06-10T15:53:27.976Z,98600.89
2023-06-10T15:56:22.142Z,98605.55
2023-06-10T15:58:59.292Z,98601.67
2023-06-10T16:01:53.147Z,98603.03
2023-06-10T16:04:47.528Z,98602.40
2023-06-10T16:07:41.865Z,98604.36
2023-06-10T16:10:35.600Z,98604.05
2023-06-10T16:13:20.083Z,98596.98
2023-06-10T16:16:02.902Z,98600.02
2023-06-10T16:18:39.233Z,98611.65
2023-06-10T16:21:16.232Z,98618.70
2023-06-10T16:24:11.857Z,98631.98
2023-06-10T16:27:07.911Z,98639.66
2023-06-10T16:30:02.057Z,98632.45
2023-06-10T16:32:55.794Z,98626.68
2023-06-10T16:35:33.056Z,98626.84
2023-06-10T16:38:27.151Z,98635.58
2023-06-10T16:41:21.073Z,98638.21
2023-06-10T16:43:59.629Z,98639.48
2023-06-10T16:46:54.950Z,98650.00
2023-06-10T16:49:50.699Z,98659.11
2023-06-10T16:52:45.760Z,98660.45
2023-06-10T16:55:24.809Z,98659.20
2023-06-10T16:58:18.963Z,98663.15
2023-06-10T17:01:13.253Z,98665.30
2023-06-10T17:04:07.589Z,98675.58
2023-06-10T17:06:41.368Z,98677.25
2023-06-10T17:09:35.524Z,98681.83
2023-06-10T17:12:15.186Z,98681.76
2023-06-10T17:14:51.881Z,98684.59
2023-06-10T17:17:31.229Z,98687.36
2023-06-10T17:20:13.140Z,98691.02
2023-06-10T17:23:08.854Z,98687.04
2023-06-10T17:25:53.053Z,98692.29
2023-06-10T17:28:49.220Z,98695.09
2023-06-10T17:31:26.231Z,98692.97
2023-06-10T17:34:03.127Z,98693.44
2023-06-10T17:36:57.103Z,98693.11
2023-06-10T17:39:51.468Z,98695.09
2023-06-10T17:42:30.670Z,98701.69
2023-06-10T17:45:24.591Z,98702.05
2023-06-10T17:48:09.187Z,98700.64
2023-06-10T17:51:03.029Z,98700.06
2023-06-10T17:53:56.786Z,98702.28
2023-06-10T17:56:51.614Z,98697.13
2023-06-10T17:59:30.528Z,98698.19
2023-06-10T18:02:24.481Z,98695.73
2023-06-10T18:05:18.766Z,98699.58
2023-06-10T18:08:12.872Z,98701.03
2023-06-10T18:11:06.706Z,98706.54
2023-06-10T18:14:00.867Z,98706.61
2023-06-10T18:16:54.547Z,98711.38
2023-06-10T18:19:48.945Z,98711.20
2023-06-10T18:22:43.473Z,98711.69
2023-06-10T18:25:23.332Z,98719.60
2023-06-10T18:28:17.091Z,98722.69
2023-06-10T18:31:10.968Z,98722.91
2023-06-10T18:34:04.863Z,98725.03
2023-06-10T18:36:59.925Z,98725.52
2023-06-10T18:39:54.440Z,98723.14
2023-06-10T18:42:48.929Z,98731.77
2023-06-10T18:45:43.708Z,98738.65
2023-06-10T18:48:37.943Z,98736.59
2023-06-10T18:51:31.994Z,98736.41
2023-06-10T18:54:26.035Z,98739.66
2023-06-10T18:57:20.538Z,98745.98
2023-06-10T19:00:18.039Z,98753.41
2023-06-10T19:03:11.912Z,98758.80
2023-06-10T19:06:06.597Z,98762.59
2023-06-10T19:08:47.691Z,98766.56
2023-06-10T19:11:41.793Z,98763.80
2023-06-10T19:14:36.944Z,98771.52
2023-06-10T19:17:32.237Z,98775.40
2023-06-10T19:20:26.409Z,98774.67
2023-06-10T19:23:20.722Z,98775.14
2023-06-10T19:26:15.015Z,98778.31
2023-06-10T19:29:09.087Z,98781.04
2023-06-10T19:32:03.157Z,98779.72
2023-06-10T19:34:57.298Z,98778.02
2023-06-10T19:37:52.047Z,98774.57
2023-06-10T19:40:45.787Z,98775.27
2023-06-10T19:43:39.682Z,98774.85
2023-06-10T19:46:34.116Z,98772.00
2023-06-10T19:49:28.384Z,98776.58
2023-06-10T19:52:24.389Z,98777.77
2023-06-10T19:55:19.069Z,98777.39
2023-06-10T19:58:03.864Z,98778.51
2023-06-10T20:00:58.087Z,98782.23
2023-06-10T20:03:52.207Z,98786.24
2023-06-10T20:06:47.174Z,98789.25
2023-06-10T20:09:41.661Z,98789.36
2023-06-10T20:12:35.663Z,98790.43
2023-06-10T20:15:29.621Z,98791.56
2023-06-10T20:18:24.538Z,98796.06
2023-06-10T20:21:20.025Z,98799.21
2023-06-10T20:24:14.444Z,98797.86
2023-06-10T20:27:09.904Z,98798.58
2023-06-10T20:30:03.945Z,98796.92
2023-06-10T20:32:57.822Z,98799.70
2023-06-10T20:35:34.849Z,98801.61
2023-06-10T20:38:30.041Z,98802.44
2023-06-10T20:41:23.922Z,98806.41
2023-06-10T20:43:59.792Z,98803.56
2023-06-10T20:46:54.001Z,98806.31
2023-06-10T20:49:48.457Z,98805.14
2023-06-10T20:52:42.999Z,98804.81
2023-06-10T20:55:37.073Z,98808.67
2023-06-10T20:58:31.366Z,98813.41
2023-06-10T21:01:26.614Z,98808.51
2023-06-10T21:04:12.649Z,98812.45
2023-06-10T21:07:07.390Z,98813.23
2023-06-10T21:10:01.631Z,98816.19
2023-06-10T21:12:38.497Z,98817.05
2023-06-10T21:15:32.707Z,98818.65
2023-06-10T21:18:27.270Z,98819.67
2023-06-10T21:21:21.627Z,98814.58
2023-06-10T21:24:15.426Z,98816.39
2023-06-10T21:26:52.229Z,98814.97
2023-06-10T21:29:46.783Z,98817.59
2023-06-10T21:32:41.214Z,98816.26
2023-06-10T21:35:35.535Z,98819.80
2023-06-10T21:38:29.506Z,98820.41
2023-06-10T21:41:08.738Z,98820.02
2023-06-10T21:44:02.424Z,98821.31
2023-06-10T21:46:56.206Z,98823.74
2023-06-10T21:49:40.061Z,98821.62
2023-06-10T21:52:34.266Z,98823.98
2023-06-10T21:55:28.076Z,98825.02
2023-06-10T21:58:07.409Z,98822.56
2023-06-10T22:01:01.316Z,98817.50
2023-06-10T22:03:55.594Z,98820.16
2023-06-10T22:06:49.405Z,98817.26
2023-06-10T22:09:26.023Z,98816.40
2023-06-10T22:12:20.239Z,98818.36
2023-06-10T22:15:15.162Z,98824.29
2023-06-10T22:18:10.546Z,98817.95
2023-06-10T22:21:04.444Z,98816.39
2023-06-10T22:23:58.444Z,98815.28
2023-06-10T22:26:52.179Z,98817.49
2023-06-10T22:29:44.508Z,98815.89
2023-06-10T22:32:38.947Z,98820.73
2023-06-10T22:35:33.151Z,98819.59
2023-06-10T22:38:27.252Z,98817.84
2023-06-10T22:41:21.792Z,98819.35
2023-06-10T22:44:01.705Z,98816.59
2023-06-10T22:46:55.436Z,98817.53
2023-06-10T22:49:49.230Z,98815.58
2023-06-10T22:52:43.097Z,98819.69
2023-06-10T22:55:37.468Z,98823.56
2023-06-10T22:58:31.461Z,98820.69
2023-06-10T23:01:10.571Z,98820.62
2023-06-10T23:04:04.503Z,98821.48
2023-06-10T23:06:58.608Z,98820.30
2023-06-10T23:09:53.118Z,98819.57
2023-06-10T23:12:46.949Z,98822.82
2023-06-10T23:15:41.048Z,98823.29
2023-06-10T23:18:35.122Z,98820.84
2023-06-10T23:21:34.773Z,98823.66
2023-06-10T23:24:31.193Z,98819.48
2023-06-10T23:27:25.632Z,98819.88
2023-06-10T23:30:02.751Z,98817.57
2023-06-10T23:32:39.615Z,98818.61
2023-06-10T23:35:34.240Z,98820.59
2023-06-10T23:38:13.870Z,98821.61
2023-06-10T23:41:08.211Z,98818.13
2023-06-10T23:44:02.094Z,98819.00
2023-06-10T23:46:55.610Z,98816.46
2023-06-10T23:49:49.978Z,98820.09
2023-06-10T23:52:44.062Z,98818.05
2023-06-10T23:55:24.034Z,98821.59
2023-06-10T23:58:17.738Z,98818.27
